Fargo, ND (58102)

11:30 AM CDT on September 28, 2016 (GMT -0500)
Hector International | | Change Station

Elev 899 ft 46.91 °N, 96.81 °W | Updated 15 minutes ago

Overcast
Overcast
53 °F
Feels Like 53 °F
N
8
Wind Variable Wind from North

Today
High -- | Low -- °F
--% Chance of Precip.
Yesterday
High -- | Low -- °F
Precip. -- in
Pressure 30.29 in
Visibility 10.0 miles
Clouds Overcast 1000 ft
Dew Point 46 °F
Humidity 77%
Rainfall 0.00 in
Snow Depth Not available.
7:22 AM 7:11 PM
Waning Crescent, 5% visible
SPECI KFAR 281615Z 36007KT 10SM OVC010 12/08 A3029 RMK AO2 T01170078
Pressure 30.29 in
Visibility 10.0 miles
Clouds Overcast 1000 ft
Dew Point 46 °F
Humidity 77%
Rainfall 0.00 in
Snow Depth Not available.
7:22 AM 7:11 PM
Waning Crescent, 5% visible
SPECI KFAR 281615Z 36007KT 10SM OVC010 12/08 A3029 RMK AO2 T01170078

10-Day Weather Forecast

Almanac

Astronomy

Sep. 28, 2016 Rise Set
Actual Time
Civil Twilight
Nautical Twilight
Astronomical Twilight
Moon
Length of Visible Light
Length of Day
Tomorrow will be .
, % of the Moon is Illuminated

Today's Extremes

State Highs State Lows

Community

WunderPhotos

Upload Photos

1,942,276 photos uploaded!

WunderBlog® & News

Nearby

Air Quality

  Air Quality AQ Index Pollutant
Not available.

Snow Depth

Station Depth Elevation

Earthquake Activity

City Distance Mag. Time & Date
Minimum magnitude displayed is 2.5.

Coastal Water Temperatures

Place Temperature

Stations

Nearby Weather Stations

Station Location Temp. Windchill Dew Point Humidity Wind Precip. Elev Updated Type
                   

Watches & Warnings

There are currently no watches in effect.